sensor_id;sensor_type;location;lat;lon;timestamp;P1;durP1;ratioP1;P2;durP2;ratioP2
72797;SDS011;61084;55.816;37.036;2023-02-01T00:01:55;9.63;;;4.00;;
72797;SDS011;61084;55.816;37.036;2023-02-01T00:04:21;9.10;;;3.63;;
72797;SDS011;61084;55.816;37.036;2023-02-01T00:06:47;10.48;;;4.25;;
72797;SDS011;61084;55.816;37.036;2023-02-01T00:09:15;8.57;;;4.10;;
72797;SDS011;61084;55.816;37.036;2023-02-01T00:11:41;11.02;;;3.92;;
72797;SDS011;61084;55.816;37.036;2023-02-01T00:14:07;12.00;;;4.50;;
72797;SDS011;61084;55.816;37.036;2023-02-01T00:16:33;11.15;;;4.70;;
72797;SDS011;61084;55.816;37.036;2023-02-01T00:19:12;12.65;;;4.80;;
72797;SDS011;61084;55.816;37.036;2023-02-01T00:21:39;10.63;;;4.47;;
72797;SDS011;61084;55.816;37.036;2023-02-01T00:24:06;9.48;;;4.95;;
72797;SDS011;61084;55.816;37.036;2023-02-01T00:26:38;12.95;;;5.13;;
72797;SDS011;61084;55.816;37.036;2023-02-01T00:29:06;11.52;;;4.85;;
72797;SDS011;61084;55.816;37.036;2023-02-01T00:31:40;15.00;;;5.78;;
72797;SDS011;61084;55.816;37.036;2023-02-01T00:34:06;12.70;;;5.70;;
72797;SDS011;61084;55.816;37.036;2023-02-01T00:36:33;11.10;;;4.85;;
72797;SDS011;61084;55.816;37.036;2023-02-01T00:38:59;16.25;;;5.60;;
72797;SDS011;61084;55.816;37.036;2023-02-01T00:41:25;16.27;;;5.72;;
72797;SDS011;61084;55.816;37.036;2023-02-01T00:43:52;11.25;;;5.03;;
72797;SDS011;61084;55.816;37.036;2023-02-01T00:46:18;12.75;;;5.55;;
72797;SDS011;61084;55.816;37.036;2023-02-01T00:48:45;12.02;;;5.25;;
72797;SDS011;61084;55.816;37.036;2023-02-01T00:51:12;16.85;;;6.18;;
72797;SDS011;61084;55.816;37.036;2023-02-01T00:53:39;16.38;;;5.57;;
72797;SDS011;61084;55.816;37.036;2023-02-01T00:56:05;12.60;;;5.57;;
72797;SDS011;61084;55.816;37.036;2023-02-01T00:58:31;13.68;;;5.47;;
72797;SDS011;61084;55.816;37.036;2023-02-01T01:01:08;12.20;;;4.85;;
72797;SDS011;61084;55.816;37.036;2023-02-01T01:03:44;15.30;;;6.25;;
72797;SDS011;61084;55.816;37.036;2023-02-01T01:06:12;12.02;;;5.55;;
72797;SDS011;61084;55.816;37.036;2023-02-01T01:08:42;14.85;;;5.35;;
72797;SDS011;61084;55.816;37.036;2023-02-01T01:11:12;11.52;;;5.03;;
72797;SDS011;61084;55.816;37.036;2023-02-01T01:13:40;15.38;;;5.72;;
72797;SDS011;61084;55.816;37.036;2023-02-01T01:16:09;13.48;;;5.97;;
72797;SDS011;61084;55.816;37.036;2023-02-01T01:18:36;10.55;;;4.82;;
72797;SDS011;61084;55.816;37.036;2023-02-01T01:21:06;10.80;;;4.80;;
72797;SDS011;61084;55.816;37.036;2023-02-01T01:23:33;10.35;;;4.85;;
72797;SDS011;61084;55.816;37.036;2023-02-01T01:26:00;10.70;;;5.20;;
72797;SDS011;61084;55.816;37.036;2023-02-01T01:28:26;12.85;;;5.10;;
72797;SDS011;61084;55.816;37.036;2023-02-01T01:30:52;13.48;;;5.35;;
72797;SDS011;61084;55.816;37.036;2023-02-01T01:33:18;11.02;;;4.85;;
72797;SDS011;61084;55.816;37.036;2023-02-01T01:35:43;12.82;;;5.28;;
72797;SDS011;61084;55.816;37.036;2023-02-01T01:38:10;11.45;;;4.72;;
72797;SDS011;61084;55.816;37.036;2023-02-01T01:40:36;13.48;;;4.95;;
72797;SDS011;61084;55.816;37.036;2023-02-01T01:43:03;14.45;;;5.18;;
72797;SDS011;61084;55.816;37.036;2023-02-01T01:45:49;13.40;;;5.85;;
72797;SDS011;61084;55.816;37.036;2023-02-01T01:48:26;12.65;;;5.03;;
72797;SDS011;61084;55.816;37.036;2023-02-01T01:51:04;12.57;;;5.38;;
72797;SDS011;61084;55.816;37.036;2023-02-01T01:53:39;12.75;;;5.35;;
72797;SDS011;61084;55.816;37.036;2023-02-01T01:56:13;13.25;;;5.38;;
72797;SDS011;61084;55.816;37.036;2023-02-01T01:58:39;12.93;;;5.15;;
72797;SDS011;61084;55.816;37.036;2023-02-01T02:01:06;11.70;;;5.45;;
72797;SDS011;61084;55.816;37.036;2023-02-01T02:03:32;14.88;;;5.80;;
72797;SDS011;61084;55.816;37.036;2023-02-01T02:06:03;12.48;;;5.22;;
72797;SDS011;61084;55.816;37.036;2023-02-01T02:08:34;10.05;;;4.70;;
72797;SDS011;61084;55.816;37.036;2023-02-01T02:11:02;11.35;;;4.57;;
72797;SDS011;61084;55.816;37.036;2023-02-01T02:13:35;12.60;;;4.90;;
72797;SDS011;61084;55.816;37.036;2023-02-01T02:45:41;14.30;;;5.13;;
72797;SDS011;61084;55.816;37.036;2023-02-01T02:48:42;10.75;;;4.97;;
72797;SDS011;61084;55.816;37.036;2023-02-01T02:51:12;11.40;;;4.63;;
72797;SDS011;61084;55.816;37.036;2023-02-01T02:54:10;12.40;;;4.95;;
72797;SDS011;61084;55.816;37.036;2023-02-01T02:56:59;11.85;;;4.65;;
72797;SDS011;61084;55.816;37.036;2023-02-01T02:59:46;10.77;;;4.38;;
72797;SDS011;61084;55.816;37.036;2023-02-01T03:02:32;9.77;;;4.63;;
72797;SDS011;61084;55.816;37.036;2023-02-01T03:05:18;12.05;;;4.88;;
72797;SDS011;61084;55.816;37.036;2023-02-01T03:21:17;12.95;;;5.05;;
72797;SDS011;61084;55.816;37.036;2023-02-01T03:23:47;12.13;;;5.10;;
72797;SDS011;61084;55.816;37.036;2023-02-01T03:26:16;11.75;;;4.95;;
72797;SDS011;61084;55.816;37.036;2023-02-01T03:28:49;10.40;;;4.95;;
72797;SDS011;61084;55.816;37.036;2023-02-01T03:31:21;14.43;;;5.32;;
72797;SDS011;61084;55.816;37.036;2023-02-01T03:33:48;10.40;;;3.97;;
72797;SDS011;61084;55.816;37.036;2023-02-01T03:38:55;12.05;;;4.95;;
72797;SDS011;61084;55.816;37.036;2023-02-01T03:41:37;15.45;;;5.18;;
72797;SDS011;61084;55.816;37.036;2023-02-01T03:46:53;11.50;;;4.85;;
72797;SDS011;61084;55.816;37.036;2023-02-01T03:49:32;11.20;;;4.78;;
72797;SDS011;61084;55.816;37.036;2023-02-01T03:52:03;13.48;;;5.70;;
72797;SDS011;61084;55.816;37.036;2023-02-01T03:54:32;14.48;;;5.25;;
72797;SDS011;61084;55.816;37.036;2023-02-01T03:56:59;12.77;;;4.80;;
72797;SDS011;61084;55.816;37.036;2023-02-01T03:59:30;10.27;;;4.50;;
72797;SDS011;61084;55.816;37.036;2023-02-01T04:01:56;12.48;;;4.82;;
72797;SDS011;61084;55.816;37.036;2023-02-01T04:04:22;14.60;;;4.85;;
72797;SDS011;61084;55.816;37.036;2023-02-01T04:06:51;13.32;;;5.15;;
72797;SDS011;61084;55.816;37.036;2023-02-01T04:09:18;11.13;;;4.97;;
72797;SDS011;61084;55.816;37.036;2023-02-01T04:11:44;14.43;;;5.40;;
72797;SDS011;61084;55.816;37.036;2023-02-01T04:14:09;12.52;;;5.43;;
72797;SDS011;61084;55.816;37.036;2023-02-01T04:16:37;15.15;;;5.13;;
72797;SDS011;61084;55.816;37.036;2023-02-01T04:19:03;11.27;;;4.90;;
72797;SDS011;61084;55.816;37.036;2023-02-01T04:21:29;12.63;;;5.22;;
72797;SDS011;61084;55.816;37.036;2023-02-01T04:23:55;11.68;;;4.95;;
72797;SDS011;61084;55.816;37.036;2023-02-01T04:26:20;14.40;;;5.35;;
72797;SDS011;61084;55.816;37.036;2023-02-01T04:28:46;14.77;;;5.32;;
72797;SDS011;61084;55.816;37.036;2023-02-01T04:31:16;12.50;;;4.95;;
72797;SDS011;61084;55.816;37.036;2023-02-01T04:33:49;15.57;;;5.18;;
72797;SDS011;61084;55.816;37.036;2023-02-01T04:36:15;13.13;;;5.45;;
72797;SDS011;61084;55.816;37.036;2023-02-01T04:38:44;10.30;;;4.93;;
72797;SDS011;61084;55.816;37.036;2023-02-01T04:41:10;12.18;;;5.60;;
72797;SDS011;61084;55.816;37.036;2023-02-01T04:43:36;12.82;;;4.88;;
72797;SDS011;61084;55.816;37.036;2023-02-01T04:46:02;11.50;;;5.28;;
72797;SDS011;61084;55.816;37.036;2023-02-01T04:48:27;14.63;;;5.25;;
72797;SDS011;61084;55.816;37.036;2023-02-01T04:50:55;16.88;;;5.90;;
72797;SDS011;61084;55.816;37.036;2023-02-01T04:53:21;15.32;;;5.55;;
72797;SDS011;61084;55.816;37.036;2023-02-01T04:55:48;13.30;;;5.13;;
72797;SDS011;61084;55.816;37.036;2023-02-01T04:58:15;12.13;;;4.95;;
72797;SDS011;61084;55.816;37.036;2023-02-01T05:00:41;20.00;;;5.93;;
72797;SDS011;61084;55.816;37.036;2023-02-01T05:03:09;12.15;;;4.75;;
72797;SDS011;61084;55.816;37.036;2023-02-01T05:05:35;13.73;;;5.50;;
72797;SDS011;61084;55.816;37.036;2023-02-01T05:08:00;12.30;;;5.75;;
72797;SDS011;61084;55.816;37.036;2023-02-01T05:10:26;16.70;;;5.78;;
72797;SDS011;61084;55.816;37.036;2023-02-01T05:12:54;16.40;;;5.30;;
72797;SDS011;61084;55.816;37.036;2023-02-01T05:15:38;14.25;;;5.00;;
72797;SDS011;61084;55.816;37.036;2023-02-01T05:18:04;15.63;;;5.72;;
72797;SDS011;61084;55.816;37.036;2023-02-01T05:20:30;17.67;;;6.28;;
72797;SDS011;61084;55.816;37.036;2023-02-01T05:22:56;14.70;;;5.60;;
72797;SDS011;61084;55.816;37.036;2023-02-01T05:25:22;16.77;;;6.15;;
72797;SDS011;61084;55.816;37.036;2023-02-01T05:27:48;15.45;;;5.88;;
72797;SDS011;61084;55.816;37.036;2023-02-01T05:30:14;21.10;;;6.50;;
72797;SDS011;61084;55.816;37.036;2023-02-01T05:32:40;20.08;;;6.93;;
72797;SDS011;61084;55.816;37.036;2023-02-01T05:35:05;16.33;;;6.30;;
72797;SDS011;61084;55.816;37.036;2023-02-01T05:37:32;18.27;;;6.32;;
72797;SDS011;61084;55.816;37.036;2023-02-01T05:39:57;20.48;;;6.93;;
72797;SDS011;61084;55.816;37.036;2023-02-01T05:42:23;16.75;;;6.40;;
72797;SDS011;61084;55.816;37.036;2023-02-01T05:44:49;18.17;;;6.80;;
72797;SDS011;61084;55.816;37.036;2023-02-01T05:47:14;20.98;;;6.70;;
72797;SDS011;61084;55.816;37.036;2023-02-01T05:49:40;19.83;;;6.85;;
72797;SDS011;61084;55.816;37.036;2023-02-01T05:52:06;21.52;;;7.32;;
72797;SDS011;61084;55.816;37.036;2023-02-01T05:54:32;24.40;;;7.57;;
72797;SDS011;61084;55.816;37.036;2023-02-01T05:56:57;20.48;;;8.07;;
72797;SDS011;61084;55.816;37.036;2023-02-01T05:59:23;16.15;;;7.22;;
72797;SDS011;61084;55.816;37.036;2023-02-01T06:01:49;16.55;;;7.00;;
72797;SDS011;61084;55.816;37.036;2023-02-01T06:04:15;16.08;;;6.85;;
72797;SDS011;61084;55.816;37.036;2023-02-01T06:06:40;20.95;;;7.75;;
72797;SDS011;61084;55.816;37.036;2023-02-01T06:09:06;19.92;;;7.78;;
72797;SDS011;61084;55.816;37.036;2023-02-01T06:11:32;24.15;;;7.72;;
72797;SDS011;61084;55.816;37.036;2023-02-01T06:13:58;20.63;;;7.75;;
72797;SDS011;61084;55.816;37.036;2023-02-01T06:16:23;22.80;;;7.32;;
72797;SDS011;61084;55.816;37.036;2023-02-01T06:18:49;23.70;;;8.73;;
72797;SDS011;61084;55.816;37.036;2023-02-01T06:21:15;22.63;;;7.25;;
72797;SDS011;61084;55.816;37.036;2023-02-01T06:23:49;26.42;;;8.40;;
72797;SDS011;61084;55.816;37.036;2023-02-01T06:28:43;25.30;;;7.90;;
72797;SDS011;61084;55.816;37.036;2023-02-01T06:31:09;20.83;;;7.43;;
72797;SDS011;61084;55.816;37.036;2023-02-01T06:33:35;19.50;;;7.85;;
72797;SDS011;61084;55.816;37.036;2023-02-01T06:36:03;20.95;;;7.78;;
72797;SDS011;61084;55.816;37.036;2023-02-01T06:38:30;23.73;;;8.00;;
72797;SDS011;61084;55.816;37.036;2023-02-01T06:40:56;23.33;;;8.93;;
72797;SDS011;61084;55.816;37.036;2023-02-01T06:43:23;20.65;;;7.60;;
72797;SDS011;61084;55.816;37.036;2023-02-01T06:48:16;20.65;;;8.18;;
72797;SDS011;61084;55.816;37.036;2023-02-01T06:50:43;23.52;;;7.75;;
72797;SDS011;61084;55.816;37.036;2023-02-01T06:53:09;28.63;;;8.98;;
72797;SDS011;61084;55.816;37.036;2023-02-01T06:55:35;21.02;;;8.10;;
72797;SDS011;61084;55.816;37.036;2023-02-01T06:58:01;21.35;;;8.05;;
72797;SDS011;61084;55.816;37.036;2023-02-01T07:00:28;21.88;;;8.95;;
72797;SDS011;61084;55.816;37.036;2023-02-01T07:02:54;24.30;;;8.93;;
72797;SDS011;61084;55.816;37.036;2023-02-01T07:05:20;24.25;;;9.10;;
72797;SDS011;61084;55.816;37.036;2023-02-01T07:07:46;22.60;;;8.80;;
72797;SDS011;61084;55.816;37.036;2023-02-01T07:10:12;25.63;;;8.38;;
72797;SDS011;61084;55.816;37.036;2023-02-01T07:12:38;22.48;;;8.90;;
72797;SDS011;61084;55.816;37.036;2023-02-01T07:15:04;20.02;;;7.85;;
72797;SDS011;61084;55.816;37.036;2023-02-01T07:17:31;26.20;;;8.95;;
72797;SDS011;61084;55.816;37.036;2023-02-01T07:19:57;22.25;;;8.65;;
72797;SDS011;61084;55.816;37.036;2023-02-01T07:22:25;24.50;;;8.15;;
72797;SDS011;61084;55.816;37.036;2023-02-01T07:24:51;24.00;;;8.30;;
72797;SDS011;61084;55.816;37.036;2023-02-01T07:27:17;25.00;;;8.60;;
72797;SDS011;61084;55.816;37.036;2023-02-01T07:29:43;26.48;;;8.85;;
72797;SDS011;61084;55.816;37.036;2023-02-01T07:32:08;26.38;;;9.15;;
72797;SDS011;61084;55.816;37.036;2023-02-01T07:34:34;22.92;;;8.98;;
72797;SDS011;61084;55.816;37.036;2023-02-01T07:37:00;25.08;;;8.43;;
72797;SDS011;61084;55.816;37.036;2023-02-01T07:39:26;26.83;;;9.00;;
72797;SDS011;61084;55.816;37.036;2023-02-01T07:41:53;25.13;;;9.15;;
72797;SDS011;61084;55.816;37.036;2023-02-01T07:44:19;25.15;;;8.77;;
72797;SDS011;61084;55.816;37.036;2023-02-01T07:46:48;27.50;;;8.50;;
72797;SDS011;61084;55.816;37.036;2023-02-01T07:49:14;25.58;;;9.20;;
72797;SDS011;61084;55.816;37.036;2023-02-01T07:51:40;25.10;;;9.77;;
72797;SDS011;61084;55.816;37.036;2023-02-01T07:54:06;26.25;;;9.10;;
72797;SDS011;61084;55.816;37.036;2023-02-01T07:56:31;28.63;;;10.15;;
72797;SDS011;61084;55.816;37.036;2023-02-01T07:58:57;26.77;;;9.35;;
72797;SDS011;61084;55.816;37.036;2023-02-01T08:01:26;29.25;;;10.05;;
72797;SDS011;61084;55.816;37.036;2023-02-01T08:03:54;30.25;;;9.95;;
72797;SDS011;61084;55.816;37.036;2023-02-01T08:06:22;25.83;;;9.10;;
72797;SDS011;61084;55.816;37.036;2023-02-01T08:08:49;27.40;;;9.02;;
72797;SDS011;61084;55.816;37.036;2023-02-01T08:11:15;26.60;;;9.75;;
72797;SDS011;61084;55.816;37.036;2023-02-01T08:13:43;28.05;;;9.48;;
72797;SDS011;61084;55.816;37.036;2023-02-01T08:16:10;28.63;;;9.10;;
72797;SDS011;61084;55.816;37.036;2023-02-01T08:18:37;25.42;;;8.93;;
72797;SDS011;61084;55.816;37.036;2023-02-01T08:21:23;25.30;;;9.73;;
72797;SDS011;61084;55.816;37.036;2023-02-01T08:23:51;22.27;;;8.55;;
72797;SDS011;61084;55.816;37.036;2023-02-01T08:26:18;28.15;;;9.68;;
72797;SDS011;61084;55.816;37.036;2023-02-01T08:28:46;27.70;;;9.15;;
72797;SDS011;61084;55.816;37.036;2023-02-01T08:31:17;24.88;;;8.80;;
72797;SDS011;61084;55.816;37.036;2023-02-01T08:33:47;17.92;;;7.75;;
72797;SDS011;61084;55.816;37.036;2023-02-01T08:36:14;24.92;;;8.68;;
72797;SDS011;61084;55.816;37.036;2023-02-01T08:38:40;25.42;;;8.38;;
72797;SDS011;61084;55.816;37.036;2023-02-01T08:41:07;20.42;;;7.50;;
72797;SDS011;61084;55.816;37.036;2023-02-01T08:43:40;24.27;;;8.00;;
72797;SDS011;61084;55.816;37.036;2023-02-01T08:46:06;22.67;;;7.90;;
72797;SDS011;61084;55.816;37.036;2023-02-01T08:48:33;23.05;;;8.07;;
72797;SDS011;61084;55.816;37.036;2023-02-01T08:51:03;23.63;;;7.35;;
72797;SDS011;61084;55.816;37.036;2023-02-01T08:53:30;20.27;;;7.38;;
72797;SDS011;61084;55.816;37.036;2023-02-01T08:55:56;21.13;;;7.40;;
72797;SDS011;61084;55.816;37.036;2023-02-01T08:58:22;24.35;;;8.65;;
72797;SDS011;61084;55.816;37.036;2023-02-01T09:00:48;24.30;;;8.20;;
72797;SDS011;61084;55.816;37.036;2023-02-01T09:03:15;24.35;;;8.75;;
72797;SDS011;61084;55.816;37.036;2023-02-01T09:05:41;23.15;;;8.07;;
72797;SDS011;61084;55.816;37.036;2023-02-01T09:08:07;20.05;;;7.43;;
72797;SDS011;61084;55.816;37.036;2023-02-01T09:10:33;19.42;;;7.07;;
72797;SDS011;61084;55.816;37.036;2023-02-01T09:12:59;24.05;;;7.70;;
72797;SDS011;61084;55.816;37.036;2023-02-01T09:15:25;15.45;;;6.63;;
72797;SDS011;61084;55.816;37.036;2023-02-01T09:17:51;24.15;;;8.13;;
72797;SDS011;61084;55.816;37.036;2023-02-01T09:20:17;22.15;;;8.15;;
72797;SDS011;61084;55.816;37.036;2023-02-01T09:22:45;23.73;;;7.57;;
72797;SDS011;61084;55.816;37.036;2023-02-01T09:25:11;21.60;;;7.50;;
72797;SDS011;61084;55.816;37.036;2023-02-01T09:27:38;19.77;;;7.45;;
72797;SDS011;61084;55.816;37.036;2023-02-01T09:30:04;20.73;;;7.72;;
72797;SDS011;61084;55.816;37.036;2023-02-01T09:32:30;18.38;;;7.25;;
72797;SDS011;61084;55.816;37.036;2023-02-01T09:34:56;17.27;;;6.97;;
72797;SDS011;61084;55.816;37.036;2023-02-01T09:37:22;18.95;;;7.57;;
72797;SDS011;61084;55.816;37.036;2023-02-01T09:39:48;20.13;;;7.68;;
72797;SDS011;61084;55.816;37.036;2023-02-01T09:48:19;18.92;;;6.30;;
72797;SDS011;61084;55.816;37.036;2023-02-01T09:50:50;23.38;;;8.25;;
72797;SDS011;61084;55.816;37.036;2023-02-01T09:55:59;19.23;;;6.63;;
72797;SDS011;61084;55.816;37.036;2023-02-01T10:01:03;19.63;;;7.55;;
72797;SDS011;61084;55.816;37.036;2023-02-01T10:03:36;18.30;;;7.30;;
72797;SDS011;61084;55.816;37.036;2023-02-01T10:06:09;18.42;;;7.65;;
72797;SDS011;61084;55.816;37.036;2023-02-01T10:12:13;18.48;;;7.50;;
72797;SDS011;61084;55.816;37.036;2023-02-01T10:27:01;17.30;;;7.05;;
72797;SDS011;61084;55.816;37.036;2023-02-01T10:29:37;19.60;;;7.82;;
72797;SDS011;61084;55.816;37.036;2023-02-01T10:35:02;20.45;;;7.70;;
72797;SDS011;61084;55.816;37.036;2023-02-01T10:37:49;19.73;;;7.65;;
72797;SDS011;61084;55.816;37.036;2023-02-01T10:40:20;23.48;;;8.52;;
72797;SDS011;61084;55.816;37.036;2023-02-01T10:42:49;18.65;;;6.72;;
72797;SDS011;61084;55.816;37.036;2023-02-01T10:45:18;19.13;;;6.88;;
72797;SDS011;61084;55.816;37.036;2023-02-01T10:47:47;15.23;;;6.25;;
72797;SDS011;61084;55.816;37.036;2023-02-01T10:53:05;16.65;;;6.85;;
72797;SDS011;61084;55.816;37.036;2023-02-01T10:58:31;15.70;;;6.72;;
72797;SDS011;61084;55.816;37.036;2023-02-01T11:01:01;14.18;;;6.07;;
72797;SDS011;61084;55.816;37.036;2023-02-01T11:06:13;15.27;;;6.05;;
72797;SDS011;61084;55.816;37.036;2023-02-01T11:08:57;17.58;;;6.43;;
72797;SDS011;61084;55.816;37.036;2023-02-01T11:11:52;13.43;;;5.97;;
72797;SDS011;61084;55.816;37.036;2023-02-01T11:16:52;13.63;;;6.20;;
72797;SDS011;61084;55.816;37.036;2023-02-01T11:19:20;12.55;;;5.78;;
72797;SDS011;61084;55.816;37.036;2023-02-01T11:21:53;13.65;;;5.50;;
72797;SDS011;61084;55.816;37.036;2023-02-01T11:24:27;14.50;;;5.93;;
72797;SDS011;61084;55.816;37.036;2023-02-01T11:26:57;15.13;;;6.93;;
72797;SDS011;61084;55.816;37.036;2023-02-01T11:29:25;15.95;;;6.65;;
72797;SDS011;61084;55.816;37.036;2023-02-01T11:31:58;17.65;;;6.65;;
72797;SDS011;61084;55.816;37.036;2023-02-01T11:34:33;14.23;;;6.32;;
72797;SDS011;61084;55.816;37.036;2023-02-01T11:37:02;15.88;;;6.75;;
72797;SDS011;61084;55.816;37.036;2023-02-01T11:39:30;13.00;;;6.25;;
72797;SDS011;61084;55.816;37.036;2023-02-01T11:42:01;15.68;;;6.05;;
72797;SDS011;61084;55.816;37.036;2023-02-01T11:44:47;14.07;;;6.07;;
72797;SDS011;61084;55.816;37.036;2023-02-01T11:49:52;16.52;;;6.35;;
72797;SDS011;61084;55.816;37.036;2023-02-01T11:52:26;13.60;;;5.88;;
72797;SDS011;61084;55.816;37.036;2023-02-01T11:55:04;14.80;;;6.22;;
72797;SDS011;61084;55.816;37.036;2023-02-01T12:00:35;15.43;;;6.32;;
72797;SDS011;61084;55.816;37.036;2023-02-01T12:14:04;15.80;;;6.78;;
72797;SDS011;61084;55.816;37.036;2023-02-01T12:16:51;15.82;;;6.43;;
72797;SDS011;61084;55.816;37.036;2023-02-01T12:27:42;14.73;;;6.75;;
72797;SDS011;61084;55.816;37.036;2023-02-01T12:35:59;11.77;;;5.70;;
72797;SDS011;61084;55.816;37.036;2023-02-01T12:41:34;11.98;;;5.55;;
72797;SDS011;61084;55.816;37.036;2023-02-01T12:44:07;13.43;;;6.05;;
72797;SDS011;61084;55.816;37.036;2023-02-01T12:51:38;11.18;;;5.53;;
72797;SDS011;61084;55.816;37.036;2023-02-01T12:56:43;12.82;;;6.50;;
72797;SDS011;61084;55.816;37.036;2023-02-01T12:59:21;11.52;;;5.82;;
72797;SDS011;61084;55.816;37.036;2023-02-01T13:07:22;14.70;;;6.75;;
72797;SDS011;61084;55.816;37.036;2023-02-01T13:10:00;16.02;;;7.53;;
72797;SDS011;61084;55.816;37.036;2023-02-01T13:12:37;14.30;;;6.70;;
72797;SDS011;61084;55.816;37.036;2023-02-01T13:15:12;15.57;;;6.75;;
72797;SDS011;61084;55.816;37.036;2023-02-01T13:17:54;15.25;;;7.10;;
72797;SDS011;61084;55.816;37.036;2023-02-01T13:20:34;18.30;;;7.53;;
72797;SDS011;61084;55.816;37.036;2023-02-01T13:23:48;15.68;;;7.50;;
72797;SDS011;61084;55.816;37.036;2023-02-01T13:26:14;15.95;;;7.10;;
72797;SDS011;61084;55.816;37.036;2023-02-01T13:39:24;14.50;;;5.70;;
72797;SDS011;61084;55.816;37.036;2023-02-01T13:42:03;16.55;;;6.93;;
72797;SDS011;61084;55.816;37.036;2023-02-01T13:44:46;16.85;;;7.53;;
72797;SDS011;61084;55.816;37.036;2023-02-01T13:49:49;16.90;;;7.20;;
72797;SDS011;61084;55.816;37.036;2023-02-01T13:52:22;16.50;;;6.88;;
72797;SDS011;61084;55.816;37.036;2023-02-01T13:55:02;15.82;;;7.20;;
72797;SDS011;61084;55.816;37.036;2023-02-01T13:57:41;18.30;;;7.45;;
72797;SDS011;61084;55.816;37.036;2023-02-01T14:10:47;15.80;;;6.90;;
72797;SDS011;61084;55.816;37.036;2023-02-01T14:13:23;16.00;;;6.65;;
72797;SDS011;61084;55.816;37.036;2023-02-01T14:26:49;17.98;;;7.43;;
72797;SDS011;61084;55.816;37.036;2023-02-01T14:32:04;20.55;;;7.63;;
72797;SDS011;61084;55.816;37.036;2023-02-01T14:34:59;18.63;;;6.97;;
72797;SDS011;61084;55.816;37.036;2023-02-01T14:37:29;17.40;;;6.85;;
72797;SDS011;61084;55.816;37.036;2023-02-01T14:39:59;17.35;;;7.45;;
72797;SDS011;61084;55.816;37.036;2023-02-01T14:42:43;18.02;;;7.43;;
72797;SDS011;61084;55.816;37.036;2023-02-01T14:48:39;19.10;;;6.88;;
72797;SDS011;61084;55.816;37.036;2023-02-01T14:55:41;16.55;;;8.18;;
72797;SDS011;61084;55.816;37.036;2023-02-01T14:58:39;19.98;;;7.65;;
72797;SDS011;61084;55.816;37.036;2023-02-01T15:01:28;22.15;;;7.90;;
72797;SDS011;61084;55.816;37.036;2023-02-01T15:06:46;27.60;;;8.50;;
72797;SDS011;61084;55.816;37.036;2023-02-01T15:12:05;18.98;;;7.43;;
72797;SDS011;61084;55.816;37.036;2023-02-01T15:15:02;17.65;;;7.60;;
72797;SDS011;61084;55.816;37.036;2023-02-01T15:17:40;15.05;;;6.00;;
72797;SDS011;61084;55.816;37.036;2023-02-01T15:20:13;16.00;;;7.10;;
72797;SDS011;61084;55.816;37.036;2023-02-01T15:22:53;17.48;;;7.45;;
72797;SDS011;61084;55.816;37.036;2023-02-01T15:25:31;15.88;;;6.65;;
72797;SDS011;61084;55.816;37.036;2023-02-01T15:28:00;17.65;;;6.75;;
72797;SDS011;61084;55.816;37.036;2023-02-01T15:30:28;16.92;;;7.05;;
72797;SDS011;61084;55.816;37.036;2023-02-01T15:33:13;15.73;;;6.07;;
72797;SDS011;61084;55.816;37.036;2023-02-01T15:35:43;18.23;;;7.25;;
72797;SDS011;61084;55.816;37.036;2023-02-01T15:41:31;14.85;;;6.45;;
72797;SDS011;61084;55.816;37.036;2023-02-01T15:46:21;15.68;;;7.03;;
72797;SDS011;61084;55.816;37.036;2023-02-01T15:51:46;19.83;;;6.43;;
72797;SDS011;61084;55.816;37.036;2023-02-01T15:54:16;13.90;;;5.85;;
72797;SDS011;61084;55.816;37.036;2023-02-01T15:56:49;14.38;;;6.68;;
72797;SDS011;61084;55.816;37.036;2023-02-01T15:59:25;18.88;;;6.88;;
72797;SDS011;61084;55.816;37.036;2023-02-01T16:01:56;23.70;;;6.97;;
72797;SDS011;61084;55.816;37.036;2023-02-01T16:06:59;18.85;;;6.88;;
72797;SDS011;61084;55.816;37.036;2023-02-01T16:09:46;22.75;;;6.57;;
72797;SDS011;61084;55.816;37.036;2023-02-01T16:12:59;17.00;;;6.90;;
72797;SDS011;61084;55.816;37.036;2023-02-01T16:15:06;17.05;;;6.53;;
72797;SDS011;61084;55.816;37.036;2023-02-01T16:17:32;18.73;;;7.32;;
72797;SDS011;61084;55.816;37.036;2023-02-01T16:19:58;21.35;;;7.55;;
72797;SDS011;61084;55.816;37.036;2023-02-01T16:22:24;23.77;;;7.95;;
72797;SDS011;61084;55.816;37.036;2023-02-01T16:24:50;23.67;;;7.32;;
72797;SDS011;61084;55.816;37.036;2023-02-01T16:27:16;24.33;;;8.38;;
72797;SDS011;61084;55.816;37.036;2023-02-01T16:29:42;21.13;;;7.38;;
72797;SDS011;61084;55.816;37.036;2023-02-01T16:32:13;20.80;;;7.68;;
72797;SDS011;61084;55.816;37.036;2023-02-01T16:34:44;20.70;;;7.57;;
72797;SDS011;61084;55.816;37.036;2023-02-01T16:37:15;21.08;;;8.13;;
72797;SDS011;61084;55.816;37.036;2023-02-01T16:39:45;20.05;;;8.23;;
72797;SDS011;61084;55.816;37.036;2023-02-01T16:42:14;18.63;;;7.65;;
72797;SDS011;61084;55.816;37.036;2023-02-01T16:44:41;21.17;;;7.93;;
72797;SDS011;61084;55.816;37.036;2023-02-01T16:47:17;19.50;;;7.95;;
72797;SDS011;61084;55.816;37.036;2023-02-01T16:49:45;18.23;;;7.03;;
72797;SDS011;61084;55.816;37.036;2023-02-01T16:52:13;22.60;;;8.07;;
72797;SDS011;61084;55.816;37.036;2023-02-01T16:54:43;21.63;;;7.25;;
72797;SDS011;61084;55.816;37.036;2023-02-01T16:57:13;20.67;;;8.50;;
72797;SDS011;61084;55.816;37.036;2023-02-01T16:59:40;20.92;;;7.28;;
72797;SDS011;61084;55.816;37.036;2023-02-01T17:02:14;20.50;;;7.43;;
72797;SDS011;61084;55.816;37.036;2023-02-01T17:04:41;18.10;;;6.97;;
72797;SDS011;61084;55.816;37.036;2023-02-01T17:07:17;23.48;;;7.15;;
72797;SDS011;61084;55.816;37.036;2023-02-01T17:09:44;16.33;;;6.95;;
72797;SDS011;61084;55.816;37.036;2023-02-01T17:12:24;19.50;;;7.70;;
72797;SDS011;61084;55.816;37.036;2023-02-01T17:14:52;17.40;;;7.18;;
72797;SDS011;61084;55.816;37.036;2023-02-01T17:17:21;19.35;;;7.13;;
72797;SDS011;61084;55.816;37.036;2023-02-01T17:19:48;20.17;;;7.15;;
72797;SDS011;61084;55.816;37.036;2023-02-01T17:22:21;16.60;;;6.68;;
72797;SDS011;61084;55.816;37.036;2023-02-01T17:24:48;25.20;;;6.93;;
72797;SDS011;61084;55.816;37.036;2023-02-01T17:27:15;17.17;;;6.32;;
72797;SDS011;61084;55.816;37.036;2023-02-01T17:32:18;18.48;;;5.90;;
72797;SDS011;61084;55.816;37.036;2023-02-01T17:34:47;19.85;;;7.40;;
72797;SDS011;61084;55.816;37.036;2023-02-01T17:37:34;19.67;;;7.07;;
72797;SDS011;61084;55.816;37.036;2023-02-01T17:40:00;18.33;;;7.28;;
72797;SDS011;61084;55.816;37.036;2023-02-01T17:42:28;20.33;;;6.88;;
72797;SDS011;61084;55.816;37.036;2023-02-01T17:45:01;19.02;;;7.72;;
72797;SDS011;61084;55.816;37.036;2023-02-01T17:47:39;21.55;;;7.18;;
72797;SDS011;61084;55.816;37.036;2023-02-01T17:50:04;22.50;;;7.88;;
72797;SDS011;61084;55.816;37.036;2023-02-01T17:52:31;15.18;;;6.32;;
72797;SDS011;61084;55.816;37.036;2023-02-01T17:54:56;20.15;;;6.80;;
72797;SDS011;61084;55.816;37.036;2023-02-01T17:57:22;23.40;;;7.82;;
72797;SDS011;61084;55.816;37.036;2023-02-01T17:59:48;20.48;;;7.70;;
72797;SDS011;61084;55.816;37.036;2023-02-01T18:02:18;21.05;;;6.75;;
72797;SDS011;61084;55.816;37.036;2023-02-01T18:05:11;17.13;;;6.65;;